Portage, WI (53901)

12:28 PM CDT on March 29, 2015 (GMT -0500)
Silver Lake Apartments | | Change Station
CLOSE
Current Station
Personal Weather Station
Location: Portage, WI
Elevation: 830 ft
Nearby Weather Stations

Elev 830 ft 43.56 °N, 89.48 °W | Updated 15 seconds ago

Overcast
Overcast
33.9 °F
Feels Like 28 °F
N
7.0
Wind Variable Wind from SW
Gusts 23.0 mph

Today
High -- | Low -- °F
--% Chance of Precip.
Yesterday
High -- | Low -- °F
Precip. -- in
6:45 AM 7:20 PM
Waxing Gibbous, 73% visible
Pressure 29.70 in
Visibility 10.0 miles
Clouds Overcast 1100 ft
Windchill 28 °F
Dew Point 30 °F
Humidity 87%
Rainfall 0.07 in
Snow Depth Not available.
UV 2 out of 12
Pollen 4.90 out of 12
Air Quality Not available.
Flu Activity Not available.
METAR KDLL 291710Z AUTO 21014G19KT 10SM -DZ OVC011 01/M01 A2970 RMK AO2 T00051010

More Conditions Fewer Conditions

Pressure 29.70 in
Visibility 10.0 miles
Clouds Overcast 1100 ft
Windchill 28 °F
Dew Point 30 °F
Humidity 87%
Rainfall 0.07 in
Snow Depth Not available.
UV 2 out of 12
Pollen 4.90 out of 12
Air Quality Not available.
Flu Activity Not available.
METAR KDLL 291710Z AUTO 21014G19KT 10SM -DZ OVC011 01/M01 A2970 RMK AO2 T00051010

More Conditions Fewer Conditions

10-Day Weather Forecast

Almanac

Astronomy

Mar. 29, 2015 Rise Set
Actual Time
Civil Twilight
Nautical Twilight
Astronomical Twilight
Moon
Length of Visible Light
Length of Day
Tomorrow will be .
, % of the Moon is Illuminated

Today's Extremes

State Highs State Lows

Community

WunderPhotos

Upload Photos

1,809,302 photos uploaded!

WunderBlogs® & News

Nearby

Air Quality

  Air Quality AQ Index Pollutant
Not available.

Snow Depth

Station Depth Elevation

Earthquake Activity

City Distance Mag. Time & Date
Minimum magnitude displayed is 2.5.

Coastal Water Temperatures

Place Temperature

Stations

Nearby Weather Stations

Station Location Temp. Windchill Dew Point Humidity Wind Precip. Elev Updated Type